sensor_id;sensor_type;location;lat;lon;timestamp;P1;durP1;ratioP1;P2;durP2;ratioP2
23163;SDS011;31429;42.674;23.350;2023-02-28T00:00:01;34.42;;;25.17;;
23163;SDS011;31429;42.674;23.350;2023-02-28T00:01:10;34.85;;;24.58;;
23163;SDS011;31429;42.674;23.350;2023-02-28T00:02:11;35.70;;;24.85;;
23163;SDS011;31429;42.674;23.350;2023-02-28T00:03:13;33.20;;;24.87;;
23163;SDS011;31429;42.674;23.350;2023-02-28T00:04:14;34.78;;;25.00;;
23163;SDS011;31429;42.674;23.350;2023-02-28T00:05:15;36.33;;;25.00;;
23163;SDS011;31429;42.674;23.350;2023-02-28T00:06:17;31.95;;;23.48;;
23163;SDS011;31429;42.674;23.350;2023-02-28T00:07:18;38.20;;;24.73;;
23163;SDS011;31429;42.674;23.350;2023-02-28T00:08:19;32.53;;;24.50;;
23163;SDS011;31429;42.674;23.350;2023-02-28T00:09:20;33.10;;;24.07;;
23163;SDS011;31429;42.674;23.350;2023-02-28T00:10:21;35.23;;;23.83;;
23163;SDS011;31429;42.674;23.350;2023-02-28T00:11:24;40.42;;;24.98;;
23163;SDS011;31429;42.674;23.350;2023-02-28T00:12:24;36.93;;;24.70;;
23163;SDS011;31429;42.674;23.350;2023-02-28T00:13:26;36.03;;;24.33;;
23163;SDS011;31429;42.674;23.350;2023-02-28T00:14:26;35.50;;;24.00;;
23163;SDS011;31429;42.674;23.350;2023-02-28T00:15:27;36.20;;;25.67;;
23163;SDS011;31429;42.674;23.350;2023-02-28T00:16:28;33.47;;;24.33;;
23163;SDS011;31429;42.674;23.350;2023-02-28T00:17:28;34.27;;;23.27;;
23163;SDS011;31429;42.674;23.350;2023-02-28T00:18:30;35.70;;;23.83;;
23163;SDS011;31429;42.674;23.350;2023-02-28T00:19:31;37.63;;;24.98;;
23163;SDS011;31429;42.674;23.350;2023-02-28T00:20:32;33.70;;;24.40;;
23163;SDS011;31429;42.674;23.350;2023-02-28T00:21:32;33.53;;;24.07;;
23163;SDS011;31429;42.674;23.350;2023-02-28T00:22:33;34.90;;;24.03;;
23163;SDS011;31429;42.674;23.350;2023-02-28T00:23:34;34.90;;;25.42;;
23163;SDS011;31429;42.674;23.350;2023-02-28T00:24:35;37.67;;;24.92;;
23163;SDS011;31429;42.674;23.350;2023-02-28T00:25:36;35.23;;;24.17;;
23163;SDS011;31429;42.674;23.350;2023-02-28T00:26:37;38.57;;;26.07;;
23163;SDS011;31429;42.674;23.350;2023-02-28T00:27:38;36.40;;;24.13;;
23163;SDS011;31429;42.674;23.350;2023-02-28T00:28:39;34.72;;;24.40;;
23163;SDS011;31429;42.674;23.350;2023-02-28T00:29:40;39.43;;;25.77;;
23163;SDS011;31429;42.674;23.350;2023-02-28T00:30:40;35.80;;;25.30;;
23163;SDS011;31429;42.674;23.350;2023-02-28T00:31:41;37.43;;;26.60;;
23163;SDS011;31429;42.674;23.350;2023-02-28T00:32:42;38.77;;;26.77;;
23163;SDS011;31429;42.674;23.350;2023-02-28T00:33:44;39.80;;;26.73;;
23163;SDS011;31429;42.674;23.350;2023-02-28T00:34:44;40.17;;;26.77;;
23163;SDS011;31429;42.674;23.350;2023-02-28T00:35:45;38.87;;;25.60;;
23163;SDS011;31429;42.674;23.350;2023-02-28T00:36:46;37.88;;;25.52;;
23163;SDS011;31429;42.674;23.350;2023-02-28T00:37:48;41.35;;;28.08;;
23163;SDS011;31429;42.674;23.350;2023-02-28T00:38:49;39.43;;;27.80;;
23163;SDS011;31429;42.674;23.350;2023-02-28T00:39:50;42.23;;;27.57;;
23163;SDS011;31429;42.674;23.350;2023-02-28T00:40:51;42.90;;;27.17;;
23163;SDS011;31429;42.674;23.350;2023-02-28T00:41:51;41.83;;;27.00;;
23163;SDS011;31429;42.674;23.350;2023-02-28T00:42:52;36.70;;;26.43;;
23163;SDS011;31429;42.674;23.350;2023-02-28T00:43:52;43.03;;;28.87;;
23163;SDS011;31429;42.674;23.350;2023-02-28T00:44:53;42.33;;;28.57;;
23163;SDS011;31429;42.674;23.350;2023-02-28T00:45:54;40.03;;;26.60;;
23163;SDS011;31429;42.674;23.350;2023-02-28T00:46:54;42.90;;;29.00;;
23163;SDS011;31429;42.674;23.350;2023-02-28T00:47:56;47.28;;;29.17;;
23163;SDS011;31429;42.674;23.350;2023-02-28T00:48:58;42.00;;;27.60;;
23163;SDS011;31429;42.674;23.350;2023-02-28T00:49:59;44.78;;;29.33;;
23163;SDS011;31429;42.674;23.350;2023-02-28T00:51:00;41.38;;;27.58;;
23163;SDS011;31429;42.674;23.350;2023-02-28T00:52:01;45.63;;;28.98;;
23163;SDS011;31429;42.674;23.350;2023-02-28T00:53:02;38.47;;;26.13;;
23163;SDS011;31429;42.674;23.350;2023-02-28T00:54:03;44.97;;;29.27;;
23163;SDS011;31429;42.674;23.350;2023-02-28T00:55:04;46.40;;;28.67;;
23163;SDS011;31429;42.674;23.350;2023-02-28T00:56:05;41.78;;;27.35;;
23163;SDS011;31429;42.674;23.350;2023-02-28T00:57:06;39.72;;;28.67;;
23163;SDS011;31429;42.674;23.350;2023-02-28T00:58:07;43.70;;;28.53;;
23163;SDS011;31429;42.674;23.350;2023-02-28T00:59:07;45.23;;;29.63;;
23163;SDS011;31429;42.674;23.350;2023-02-28T01:00:09;43.10;;;28.43;;
23163;SDS011;31429;42.674;23.350;2023-02-28T01:01:11;43.97;;;28.50;;
23163;SDS011;31429;42.674;23.350;2023-02-28T01:02:11;42.93;;;27.67;;
23163;SDS011;31429;42.674;23.350;2023-02-28T01:03:12;46.90;;;28.70;;
23163;SDS011;31429;42.674;23.350;2023-02-28T01:04:14;45.57;;;27.90;;
23163;SDS011;31429;42.674;23.350;2023-02-28T01:05:15;45.58;;;30.20;;
23163;SDS011;31429;42.674;23.350;2023-02-28T01:06:16;46.97;;;30.53;;
23163;SDS011;31429;42.674;23.350;2023-02-28T01:07:16;45.97;;;30.97;;
23163;SDS011;31429;42.674;23.350;2023-02-28T01:08:17;51.90;;;30.27;;
23163;SDS011;31429;42.674;23.350;2023-02-28T01:09:17;47.17;;;30.87;;
23163;SDS011;31429;42.674;23.350;2023-02-28T01:10:18;48.07;;;29.63;;
23163;SDS011;31429;42.674;23.350;2023-02-28T01:11:20;49.85;;;31.42;;
23163;SDS011;31429;42.674;23.350;2023-02-28T01:12:21;52.83;;;32.53;;
23163;SDS011;31429;42.674;23.350;2023-02-28T01:13:21;50.00;;;33.63;;
23163;SDS011;31429;42.674;23.350;2023-02-28T01:14:23;52.53;;;33.47;;
23163;SDS011;31429;42.674;23.350;2023-02-28T01:15:23;48.73;;;31.57;;
23163;SDS011;31429;42.674;23.350;2023-02-28T01:16:24;49.03;;;32.40;;
23163;SDS011;31429;42.674;23.350;2023-02-28T01:17:25;48.25;;;31.38;;
23163;SDS011;31429;42.674;23.350;2023-02-28T01:18:26;47.20;;;30.87;;
23163;SDS011;31429;42.674;23.350;2023-02-28T01:19:28;47.57;;;32.03;;
23163;SDS011;31429;42.674;23.350;2023-02-28T01:20:29;50.03;;;33.15;;
23163;SDS011;31429;42.674;23.350;2023-02-28T01:21:29;50.17;;;32.97;;
23163;SDS011;31429;42.674;23.350;2023-02-28T01:22:30;54.90;;;34.47;;
23163;SDS011;31429;42.674;23.350;2023-02-28T01:23:31;56.20;;;34.40;;
23163;SDS011;31429;42.674;23.350;2023-02-28T01:24:32;56.73;;;36.97;;
23163;SDS011;31429;42.674;23.350;2023-02-28T01:25:34;59.20;;;37.13;;
23163;SDS011;31429;42.674;23.350;2023-02-28T01:26:35;57.38;;;35.58;;
23163;SDS011;31429;42.674;23.350;2023-02-28T01:27:35;52.67;;;34.93;;
23163;SDS011;31429;42.674;23.350;2023-02-28T01:28:36;51.93;;;34.57;;
23163;SDS011;31429;42.674;23.350;2023-02-28T01:29:37;52.93;;;33.27;;
23163;SDS011;31429;42.674;23.350;2023-02-28T01:30:38;55.93;;;34.53;;
23163;SDS011;31429;42.674;23.350;2023-02-28T01:31:38;51.90;;;33.83;;
23163;SDS011;31429;42.674;23.350;2023-02-28T01:32:39;48.40;;;31.20;;
23163;SDS011;31429;42.674;23.350;2023-02-28T01:33:40;50.33;;;33.00;;
23163;SDS011;31429;42.674;23.350;2023-02-28T01:34:42;52.80;;;33.00;;
23163;SDS011;31429;42.674;23.350;2023-02-28T01:35:43;46.10;;;32.03;;
23163;SDS011;31429;42.674;23.350;2023-02-28T01:36:43;50.43;;;33.63;;
23163;SDS011;31429;42.674;23.350;2023-02-28T01:37:44;49.90;;;32.37;;
23163;SDS011;31429;42.674;23.350;2023-02-28T01:38:45;55.37;;;34.00;;
23163;SDS011;31429;42.674;23.350;2023-02-28T01:39:46;50.33;;;32.85;;
23163;SDS011;31429;42.674;23.350;2023-02-28T01:40:47;58.37;;;34.80;;
23163;SDS011;31429;42.674;23.350;2023-02-28T01:41:47;52.17;;;34.00;;
23163;SDS011;31429;42.674;23.350;2023-02-28T01:42:48;49.13;;;33.10;;
23163;SDS011;31429;42.674;23.350;2023-02-28T01:43:53;49.87;;;32.20;;
23163;SDS011;31429;42.674;23.350;2023-02-28T01:45:07;52.78;;;34.65;;
23163;SDS011;31429;42.674;23.350;2023-02-28T01:46:19;50.30;;;33.55;;
23163;SDS011;31429;42.674;23.350;2023-02-28T01:47:19;56.53;;;34.47;;
23163;SDS011;31429;42.674;23.350;2023-02-28T01:48:21;53.60;;;33.63;;
23163;SDS011;31429;42.674;23.350;2023-02-28T01:49:26;51.97;;;33.60;;
23163;SDS011;31429;42.674;23.350;2023-02-28T01:50:29;54.23;;;34.17;;
23163;SDS011;31429;42.674;23.350;2023-02-28T01:51:34;47.42;;;32.33;;
23163;SDS011;31429;42.674;23.350;2023-02-28T01:52:40;51.15;;;32.97;;
23163;SDS011;31429;42.674;23.350;2023-02-28T01:53:42;53.97;;;33.85;;
23163;SDS011;31429;42.674;23.350;2023-02-28T01:54:46;55.70;;;35.88;;
23163;SDS011;31429;42.674;23.350;2023-02-28T01:55:51;59.95;;;36.72;;
23163;SDS011;31429;42.674;23.350;2023-02-28T01:56:55;56.15;;;34.83;;
23163;SDS011;31429;42.674;23.350;2023-02-28T01:58:00;55.75;;;35.35;;
23163;SDS011;31429;42.674;23.350;2023-02-28T01:59:04;59.13;;;36.05;;
23163;SDS011;31429;42.674;23.350;2023-02-28T02:00:06;59.90;;;35.73;;
23163;SDS011;31429;42.674;23.350;2023-02-28T02:01:09;58.22;;;35.50;;
23163;SDS011;31429;42.674;23.350;2023-02-28T02:02:21;57.20;;;36.88;;
23163;SDS011;31429;42.674;23.350;2023-02-28T02:03:23;58.28;;;37.05;;
23163;SDS011;31429;42.674;23.350;2023-02-28T02:04:25;63.47;;;36.58;;
23163;SDS011;31429;42.674;23.350;2023-02-28T02:05:34;60.25;;;37.63;;
23163;SDS011;31429;42.674;23.350;2023-02-28T02:06:40;57.08;;;35.85;;
23163;SDS011;31429;42.674;23.350;2023-02-28T02:07:44;59.80;;;35.88;;
23163;SDS011;31429;42.674;23.350;2023-02-28T02:08:47;55.58;;;34.53;;
23163;SDS011;31429;42.674;23.350;2023-02-28T02:09:48;58.13;;;36.60;;
23163;SDS011;31429;42.674;23.350;2023-02-28T02:10:50;60.07;;;36.70;;
23163;SDS011;31429;42.674;23.350;2023-02-28T02:11:54;59.53;;;36.83;;
23163;SDS011;31429;42.674;23.350;2023-02-28T02:13:11;57.35;;;36.03;;
23163;SDS011;31429;42.674;23.350;2023-02-28T02:14:30;58.80;;;36.08;;
23163;SDS011;31429;42.674;23.350;2023-02-28T02:15:42;52.35;;;34.53;;
23163;SDS011;31429;42.674;23.350;2023-02-28T02:16:52;56.45;;;36.20;;
23163;SDS011;31429;42.674;23.350;2023-02-28T02:18:06;57.90;;;35.53;;
23163;SDS011;31429;42.674;23.350;2023-02-28T02:19:25;58.97;;;37.42;;
23163;SDS011;31429;42.674;23.350;2023-02-28T02:22:32;61.97;;;36.95;;
23163;SDS011;31429;42.674;23.350;2023-02-28T02:25:23;59.75;;;36.90;;
23163;SDS011;31429;42.674;23.350;2023-02-28T02:26:39;56.97;;;35.95;;
23163;SDS011;31429;42.674;23.350;2023-02-28T02:28:05;56.85;;;37.22;;
23163;SDS011;31429;42.674;23.350;2023-02-28T02:31:11;62.70;;;37.47;;
23163;SDS011;31429;42.674;23.350;2023-02-28T02:32:49;57.20;;;36.35;;
23163;SDS011;31429;42.674;23.350;2023-02-28T02:34:22;55.35;;;32.15;;
23163;SDS011;31429;42.674;23.350;2023-02-28T02:35:28;51.05;;;34.75;;
23163;SDS011;31429;42.674;23.350;2023-02-28T02:36:35;59.30;;;36.20;;
23163;SDS011;31429;42.674;23.350;2023-02-28T02:37:41;64.30;;;38.22;;
23163;SDS011;31429;42.674;23.350;2023-02-28T02:38:48;56.47;;;36.22;;
23163;SDS011;31429;42.674;23.350;2023-02-28T02:39:53;57.30;;;36.28;;
23163;SDS011;31429;42.674;23.350;2023-02-28T02:41:03;58.65;;;35.33;;
23163;SDS011;31429;42.674;23.350;2023-02-28T02:42:11;56.53;;;37.08;;
23163;SDS011;31429;42.674;23.350;2023-02-28T02:43:16;55.58;;;36.97;;
23163;SDS011;31429;42.674;23.350;2023-02-28T02:44:24;56.35;;;34.15;;
23163;SDS011;31429;42.674;23.350;2023-02-28T02:45:28;62.45;;;37.15;;
23163;SDS011;31429;42.674;23.350;2023-02-28T02:46:37;54.13;;;34.35;;
23163;SDS011;31429;42.674;23.350;2023-02-28T02:47:40;56.50;;;35.88;;
23163;SDS011;31429;42.674;23.350;2023-02-28T02:48:43;58.60;;;36.47;;
23163;SDS011;31429;42.674;23.350;2023-02-28T02:49:47;59.60;;;36.42;;
23163;SDS011;31429;42.674;23.350;2023-02-28T02:50:53;54.78;;;35.95;;
23163;SDS011;31429;42.674;23.350;2023-02-28T02:51:55;53.92;;;33.72;;
23163;SDS011;31429;42.674;23.350;2023-02-28T02:53:00;54.60;;;35.55;;
23163;SDS011;31429;42.674;23.350;2023-02-28T02:54:04;52.08;;;34.85;;
23163;SDS011;31429;42.674;23.350;2023-02-28T02:55:09;57.67;;;35.58;;
23163;SDS011;31429;42.674;23.350;2023-02-28T02:56:12;62.08;;;36.80;;
23163;SDS011;31429;42.674;23.350;2023-02-28T02:57:15;58.03;;;36.17;;
23163;SDS011;31429;42.674;23.350;2023-02-28T02:58:21;56.20;;;36.38;;
23163;SDS011;31429;42.674;23.350;2023-02-28T02:59:26;58.28;;;37.13;;
23163;SDS011;31429;42.674;23.350;2023-02-28T03:00:30;55.38;;;37.05;;
23163;SDS011;31429;42.674;23.350;2023-02-28T03:01:35;57.10;;;36.47;;
23163;SDS011;31429;42.674;23.350;2023-02-28T03:02:38;55.95;;;35.83;;
23163;SDS011;31429;42.674;23.350;2023-02-28T03:03:40;54.10;;;35.33;;
23163;SDS011;31429;42.674;23.350;2023-02-28T03:04:42;56.97;;;36.47;;
23163;SDS011;31429;42.674;23.350;2023-02-28T03:05:48;62.00;;;38.40;;
23163;SDS011;31429;42.674;23.350;2023-02-28T03:06:50;60.10;;;35.38;;
23163;SDS011;31429;42.674;23.350;2023-02-28T03:07:54;53.45;;;35.20;;
23163;SDS011;31429;42.674;23.350;2023-02-28T03:08:55;53.63;;;36.40;;
23163;SDS011;31429;42.674;23.350;2023-02-28T03:09:56;58.50;;;36.13;;
23163;SDS011;31429;42.674;23.350;2023-02-28T03:10:58;51.42;;;34.80;;
23163;SDS011;31429;42.674;23.350;2023-02-28T03:12:00;57.17;;;36.22;;
23163;SDS011;31429;42.674;23.350;2023-02-28T03:13:15;54.28;;;36.20;;
23163;SDS011;31429;42.674;23.350;2023-02-28T03:14:38;52.92;;;32.67;;
23163;SDS011;31429;42.674;23.350;2023-02-28T03:15:50;49.63;;;33.30;;
23163;SDS011;31429;42.674;23.350;2023-02-28T03:17:12;49.00;;;34.03;;
23163;SDS011;31429;42.674;23.350;2023-02-28T03:18:22;58.65;;;36.58;;
23163;SDS011;31429;42.674;23.350;2023-02-28T03:19:34;51.45;;;34.08;;
23163;SDS011;31429;42.674;23.350;2023-02-28T03:20:45;55.58;;;34.90;;
23163;SDS011;31429;42.674;23.350;2023-02-28T03:22:07;55.58;;;35.33;;
23163;SDS011;31429;42.674;23.350;2023-02-28T03:23:19;70.72;;;40.15;;
23163;SDS011;31429;42.674;23.350;2023-02-28T03:24:24;66.22;;;36.97;;
23163;SDS011;31429;42.674;23.350;2023-02-28T03:25:33;79.93;;;40.03;;
23163;SDS011;31429;42.674;23.350;2023-02-28T03:26:43;75.50;;;39.60;;
23163;SDS011;31429;42.674;23.350;2023-02-28T03:27:49;70.35;;;38.13;;
23163;SDS011;31429;42.674;23.350;2023-02-28T03:29:01;84.25;;;38.63;;
23163;SDS011;31429;42.674;23.350;2023-02-28T03:30:06;67.38;;;39.65;;
23163;SDS011;31429;42.674;23.350;2023-02-28T03:31:14;68.90;;;40.95;;
23163;SDS011;31429;42.674;23.350;2023-02-28T03:32:21;64.18;;;39.38;;
23163;SDS011;31429;42.674;23.350;2023-02-28T03:33:26;68.47;;;39.72;;
23163;SDS011;31429;42.674;23.350;2023-02-28T03:34:31;77.43;;;42.60;;
23163;SDS011;31429;42.674;23.350;2023-02-28T03:35:34;70.32;;;40.80;;
23163;SDS011;31429;42.674;23.350;2023-02-28T03:36:41;74.25;;;41.90;;
23163;SDS011;31429;42.674;23.350;2023-02-28T03:37:45;68.10;;;40.78;;
23163;SDS011;31429;42.674;23.350;2023-02-28T03:38:48;71.05;;;42.00;;
23163;SDS011;31429;42.674;23.350;2023-02-28T03:39:56;66.32;;;39.28;;
23163;SDS011;31429;42.674;23.350;2023-02-28T03:41:01;60.50;;;34.88;;
23163;SDS011;31429;42.674;23.350;2023-02-28T03:42:07;54.10;;;34.55;;
23163;SDS011;31429;42.674;23.350;2023-02-28T03:43:10;58.40;;;35.88;;
23163;SDS011;31429;42.674;23.350;2023-02-28T03:44:16;70.63;;;39.22;;
23163;SDS011;31429;42.674;23.350;2023-02-28T03:45:21;61.30;;;39.28;;
23163;SDS011;31429;42.674;23.350;2023-02-28T03:46:26;63.45;;;37.25;;
23163;SDS011;31429;42.674;23.350;2023-02-28T03:47:31;63.72;;;38.38;;
23163;SDS011;31429;42.674;23.350;2023-02-28T03:48:37;64.28;;;36.95;;
23163;SDS011;31429;42.674;23.350;2023-02-28T03:49:44;67.72;;;39.92;;
23163;SDS011;31429;42.674;23.350;2023-02-28T03:50:50;65.45;;;39.15;;
23163;SDS011;31429;42.674;23.350;2023-02-28T03:51:55;66.13;;;38.67;;
23163;SDS011;31429;42.674;23.350;2023-02-28T03:53:01;64.50;;;39.53;;
23163;SDS011;31429;42.674;23.350;2023-02-28T03:54:05;70.65;;;41.97;;
23163;SDS011;31429;42.674;23.350;2023-02-28T03:55:11;69.25;;;40.83;;
23163;SDS011;31429;42.674;23.350;2023-02-28T03:56:16;83.18;;;45.60;;
23163;SDS011;31429;42.674;23.350;2023-02-28T03:57:21;79.43;;;44.90;;
23163;SDS011;31429;42.674;23.350;2023-02-28T03:58:34;74.88;;;44.08;;
23163;SDS011;31429;42.674;23.350;2023-02-28T03:59:42;78.78;;;43.30;;
23163;SDS011;31429;42.674;23.350;2023-02-28T04:00:46;79.25;;;45.60;;
23163;SDS011;31429;42.674;23.350;2023-02-28T04:01:52;92.38;;;47.25;;
23163;SDS011;31429;42.674;23.350;2023-02-28T04:02:55;85.05;;;45.22;;
23163;SDS011;31429;42.674;23.350;2023-02-28T04:03:56;83.57;;;46.72;;
23163;SDS011;31429;42.674;23.350;2023-02-28T04:04:56;79.10;;;46.63;;
23163;SDS011;31429;42.674;23.350;2023-02-28T04:05:57;90.90;;;49.03;;
23163;SDS011;31429;42.674;23.350;2023-02-28T04:07:04;85.93;;;47.22;;
23163;SDS011;31429;42.674;23.350;2023-02-28T04:08:06;90.38;;;48.60;;
23163;SDS011;31429;42.674;23.350;2023-02-28T04:09:09;93.70;;;48.08;;
23163;SDS011;31429;42.674;23.350;2023-02-28T04:10:11;91.30;;;45.30;;
23163;SDS011;31429;42.674;23.350;2023-02-28T04:11:15;88.07;;;45.65;;
23163;SDS011;31429;42.674;23.350;2023-02-28T04:12:20;84.00;;;45.35;;
23163;SDS011;31429;42.674;23.350;2023-02-28T04:13:23;84.78;;;44.42;;
23163;SDS011;31429;42.674;23.350;2023-02-28T04:14:23;75.80;;;40.53;;
23163;SDS011;31429;42.674;23.350;2023-02-28T04:15:24;79.63;;;41.43;;
23163;SDS011;31429;42.674;23.350;2023-02-28T04:16:27;83.72;;;42.50;;
23163;SDS011;31429;42.674;23.350;2023-02-28T04:17:28;68.50;;;40.08;;
23163;SDS011;31429;42.674;23.350;2023-02-28T04:18:28;72.00;;;41.13;;
23163;SDS011;31429;42.674;23.350;2023-02-28T04:19:29;93.87;;;39.87;;
23163;SDS011;31429;42.674;23.350;2023-02-28T04:20:30;87.40;;;38.00;;
23163;SDS011;31429;42.674;23.350;2023-02-28T04:21:31;84.10;;;39.73;;
23163;SDS011;31429;42.674;23.350;2023-02-28T04:22:34;75.55;;;38.22;;
23163;SDS011;31429;42.674;23.350;2023-02-28T04:23:35;101.20;;;40.83;;
23163;SDS011;31429;42.674;23.350;2023-02-28T04:24:36;73.17;;;40.30;;
23163;SDS011;31429;42.674;23.350;2023-02-28T04:25:37;81.72;;;42.13;;
23163;SDS011;31429;42.674;23.350;2023-02-28T04:26:41;82.25;;;40.25;;
23163;SDS011;31429;42.674;23.350;2023-02-28T04:27:43;84.00;;;39.35;;
23163;SDS011;31429;42.674;23.350;2023-02-28T04:28:44;82.33;;;41.17;;
23163;SDS011;31429;42.674;23.350;2023-02-28T04:29:45;72.30;;;37.40;;
23163;SDS011;31429;42.674;23.350;2023-02-28T04:30:45;76.17;;;36.93;;
23163;SDS011;31429;42.674;23.350;2023-02-28T04:31:46;72.07;;;38.53;;
23163;SDS011;31429;42.674;23.350;2023-02-28T04:32:47;73.90;;;38.97;;
23163;SDS011;31429;42.674;23.350;2023-02-28T04:33:47;76.53;;;39.40;;
23163;SDS011;31429;42.674;23.350;2023-02-28T04:34:48;75.90;;;38.60;;
23163;SDS011;31429;42.674;23.350;2023-02-28T04:35:57;80.17;;;40.47;;
23163;SDS011;31429;42.674;23.350;2023-02-28T04:36:58;80.40;;;38.63;;
23163;SDS011;31429;42.674;23.350;2023-02-28T04:38:01;80.50;;;39.30;;
23163;SDS011;31429;42.674;23.350;2023-02-28T04:39:02;89.28;;;41.67;;
23163;SDS011;31429;42.674;23.350;2023-02-28T04:40:04;73.90;;;39.58;;
23163;SDS011;31429;42.674;23.350;2023-02-28T04:41:05;84.15;;;39.92;;
23163;SDS011;31429;42.674;23.350;2023-02-28T04:42:06;96.03;;;40.70;;
23163;SDS011;31429;42.674;23.350;2023-02-28T04:43:07;96.60;;;43.23;;
23163;SDS011;31429;42.674;23.350;2023-02-28T04:44:08;83.00;;;41.13;;
23163;SDS011;31429;42.674;23.350;2023-02-28T04:45:09;83.80;;;42.23;;
23163;SDS011;31429;42.674;23.350;2023-02-28T04:46:10;100.60;;;43.88;;
23163;SDS011;31429;42.674;23.350;2023-02-28T04:47:11;85.75;;;42.92;;
23163;SDS011;31429;42.674;23.350;2023-02-28T04:48:12;93.37;;;42.00;;
23163;SDS011;31429;42.674;23.350;2023-02-28T04:49:12;82.63;;;42.37;;
23163;SDS011;31429;42.674;23.350;2023-02-28T04:50:13;79.80;;;40.20;;
23163;SDS011;31429;42.674;23.350;2023-02-28T04:51:14;104.53;;;40.10;;
23163;SDS011;31429;42.674;23.350;2023-02-28T04:52:16;186.02;;;44.38;;
23163;SDS011;31429;42.674;23.350;2023-02-28T04:53:19;97.80;;;42.63;;
23163;SDS011;31429;42.674;23.350;2023-02-28T04:54:19;174.45;;;46.28;;
23163;SDS011;31429;42.674;23.350;2023-02-28T04:55:20;101.97;;;44.70;;
23163;SDS011;31429;42.674;23.350;2023-02-28T04:56:21;260.90;;;51.67;;
23163;SDS011;31429;42.674;23.350;2023-02-28T04:57:22;108.35;;;46.25;;
23163;SDS011;31429;42.674;23.350;2023-02-28T04:58:23;92.80;;;44.63;;
23163;SDS011;31429;42.674;23.350;2023-02-28T04:59:23;91.75;;;45.13;;
23163;SDS011;31429;42.674;23.350;2023-02-28T05:00:24;225.93;;;49.40;;
23163;SDS011;31429;42.674;23.350;2023-02-28T05:01:26;174.10;;;48.07;;
23163;SDS011;31429;42.674;23.350;2023-02-28T05:02:27;174.32;;;47.25;;
23163;SDS011;31429;42.674;23.350;2023-02-28T05:03:28;151.30;;;46.73;;
23163;SDS011;31429;42.674;23.350;2023-02-28T05:04:28;103.50;;;44.23;;
23163;SDS011;31429;42.674;23.350;2023-02-28T05:05:29;125.93;;;46.30;;
23163;SDS011;31429;42.674;23.350;2023-02-28T05:06:31;96.65;;;45.80;;
23163;SDS011;31429;42.674;23.350;2023-02-28T05:07:33;101.68;;;46.33;;
23163;SDS011;31429;42.674;23.350;2023-02-28T05:08:35;83.30;;;43.83;;
23163;SDS011;31429;42.674;23.350;2023-02-28T05:09:35;99.68;;;46.50;;
23163;SDS011;31429;42.674;23.350;2023-02-28T05:10:36;102.87;;;46.93;;
23163;SDS011;31429;42.674;23.350;2023-02-28T05:11:36;128.00;;;50.57;;
23163;SDS011;31429;42.674;23.350;2023-02-28T05:12:38;100.30;;;46.80;;
23163;SDS011;31429;42.674;23.350;2023-02-28T05:13:39;95.77;;;46.93;;
23163;SDS011;31429;42.674;23.350;2023-02-28T05:14:40;107.77;;;49.13;;
23163;SDS011;31429;42.674;23.350;2023-02-28T05:15:40;92.60;;;45.87;;
23163;SDS011;31429;42.674;23.350;2023-02-28T05:16:41;113.87;;;48.00;;
23163;SDS011;31429;42.674;23.350;2023-02-28T05:17:42;92.43;;;46.63;;
23163;SDS011;31429;42.674;23.350;2023-02-28T05:18:43;194.35;;;52.05;;
23163;SDS011;31429;42.674;23.350;2023-02-28T05:19:44;96.07;;;46.03;;
23163;SDS011;31429;42.674;23.350;2023-02-28T05:20:45;102.77;;;49.03;;
23163;SDS011;31429;42.674;23.350;2023-02-28T05:21:49;85.93;;;44.83;;
23163;SDS011;31429;42.674;23.350;2023-02-28T05:22:51;90.35;;;45.92;;
23163;SDS011;31429;42.674;23.350;2023-02-28T05:23:54;79.55;;;44.00;;
23163;SDS011;31429;42.674;23.350;2023-02-28T05:24:56;89.05;;;46.40;;
23163;SDS011;31429;42.674;23.350;2023-02-28T05:25:56;79.33;;;44.07;;
23163;SDS011;31429;42.674;23.350;2023-02-28T05:26:57;85.37;;;45.30;;
23163;SDS011;31429;42.674;23.350;2023-02-28T05:27:58;74.63;;;41.07;;
23163;SDS011;31429;42.674;23.350;2023-02-28T05:28:59;71.47;;;41.03;;
23163;SDS011;31429;42.674;23.350;2023-02-28T05:29:59;77.83;;;42.53;;
23163;SDS011;31429;42.674;23.350;2023-02-28T05:31:03;73.30;;;42.60;;
23163;SDS011;31429;42.674;23.350;2023-02-28T05:32:04;76.03;;;43.70;;
23163;SDS011;31429;42.674;23.350;2023-02-28T05:33:05;75.40;;;43.53;;
23163;SDS011;31429;42.674;23.350;2023-02-28T05:34:06;71.57;;;41.07;;
23163;SDS011;31429;42.674;23.350;2023-02-28T05:35:07;74.03;;;43.97;;
23163;SDS011;31429;42.674;23.350;2023-02-28T05:36:08;76.75;;;42.80;;
23163;SDS011;31429;42.674;23.350;2023-02-28T05:37:11;72.30;;;42.45;;
23163;SDS011;31429;42.674;23.350;2023-02-28T05:38:12;74.15;;;42.88;;
23163;SDS011;31429;42.674;23.350;2023-02-28T05:39:14;72.40;;;42.67;;
23163;SDS011;31429;42.674;23.350;2023-02-28T05:40:15;71.47;;;41.78;;
23163;SDS011;31429;42.674;23.350;2023-02-28T05:41:16;69.80;;;42.25;;
23163;SDS011;31429;42.674;23.350;2023-02-28T05:42:19;78.72;;;43.20;;
23163;SDS011;31429;42.674;23.350;2023-02-28T05:43:19;71.17;;;43.13;;
23163;SDS011;31429;42.674;23.350;2023-02-28T05:44:20;76.73;;;43.03;;
23163;SDS011;31429;42.674;23.350;2023-02-28T05:45:21;78.47;;;44.87;;
23163;SDS011;31429;42.674;23.350;2023-02-28T05:46:21;80.03;;;45.53;;
23163;SDS011;31429;42.674;23.350;2023-02-28T05:47:22;72.60;;;44.33;;
23163;SDS011;31429;42.674;23.350;2023-02-28T05:48:22;79.07;;;45.83;;
23163;SDS011;31429;42.674;23.350;2023-02-28T05:49:23;81.83;;;45.73;;
23163;SDS011;31429;42.674;23.350;2023-02-28T05:50:24;77.67;;;46.37;;
23163;SDS011;31429;42.674;23.350;2023-02-28T05:51:24;75.93;;;42.53;;
23163;SDS011;31429;42.674;23.350;2023-02-28T05:52:25;79.83;;;43.83;;
23163;SDS011;31429;42.674;23.350;2023-02-28T05:53:26;80.00;;;45.00;;
23163;SDS011;31429;42.674;23.350;2023-02-28T05:54:28;73.53;;;43.57;;
23163;SDS011;31429;42.674;23.350;2023-02-28T05:55:29;77.53;;;44.55;;
23163;SDS011;31429;42.674;23.350;2023-02-28T05:56:29;74.73;;;41.57;;
23163;SDS011;31429;42.674;23.350;2023-02-28T05:57:30;75.27;;;43.57;;
23163;SDS011;31429;42.674;23.350;2023-02-28T05:58:31;73.80;;;43.00;;
23163;SDS011;31429;42.674;23.350;2023-02-28T05:59:32;79.13;;;45.67;;
23163;SDS011;31429;42.674;23.350;2023-02-28T06:00:33;79.15;;;44.30;;
23163;SDS011;31429;42.674;23.350;2023-02-28T06:01:34;74.70;;;44.03;;
23163;SDS011;31429;42.674;23.350;2023-02-28T06:02:38;75.00;;;43.70;;
23163;SDS011;31429;42.674;23.350;2023-02-28T06:03:39;78.22;;;44.88;;
23163;SDS011;31429;42.674;23.350;2023-02-28T06:04:39;73.57;;;42.97;;
23163;SDS011;31429;42.674;23.350;2023-02-28T06:05:41;79.68;;;43.28;;
23163;SDS011;31429;42.674;23.350;2023-02-28T06:06:42;78.57;;;44.87;;
23163;SDS011;31429;42.674;23.350;2023-02-28T06:07:43;75.70;;;42.90;;
23163;SDS011;31429;42.674;23.350;2023-02-28T06:08:44;77.32;;;45.38;;
23163;SDS011;31429;42.674;23.350;2023-02-28T06:09:47;78.43;;;43.47;;